Time;durP1;ratioP1;P1;durP2;ratioP2;P2;SDS_P1;SDS_P2;PMS_P1;PMS_P2;Temp;Humidity;BMP_temperature;BMP_pressure;BME280_temperature;BME280_humidity;BME280_pressure;Samples;Min_cycle;Max_cycle;Signal;HPM_P1;HPM_P2
2022/12/15 00:40:17;;;;;;;8.63;1.00;;;-0.50;99.90;;;;;;5095476;28;20080;-76
2022/12/15 00:43:03;;;;;;;7.05;2.38;;;-0.60;99.90;;;;;;5074087;28;20488;-77
2022/12/15 00:48:54;;;;;;;6.20;0.93;;;-0.70;99.90;;;;;;5092838;28;20107;-87
2022/12/15 01:22:26;;;;;;;5.57;1.02;;;-1.10;99.90;;;;;;5091579;28;20051;-77
2022/12/15 01:25:13;;;;;;;7.03;1.05;;;-1.10;99.90;;;;;;5060266;28;20113;-83
2022/12/15 01:28:00;;;;;;;4.70;1.13;;;-1.10;99.90;;;;;;5076456;28;20050;-78
2022/12/15 01:30:46;;;;;;;6.80;1.10;;;-1.10;99.90;;;;;;5073550;28;20052;-78
2022/12/15 01:33:32;;;;;;;7.25;1.30;;;-1.10;99.90;;;;;;5091252;28;20084;-79
2022/12/15 01:36:19;;;;;;;6.65;1.60;;;-1.10;99.90;;;;;;5093098;28;20100;-79
2022/12/15 01:39:05;;;;;;;5.63;1.35;;;-0.90;99.90;;;;;;5084797;28;20054;-79
2022/12/15 01:41:51;;;;;;;8.23;1.60;;;-0.80;99.90;;;;;;5061700;28;20244;-78
2022/12/15 01:44:37;;;;;;;7.75;1.23;;;-0.70;99.90;;;;;;5090624;28;20044;-79
2022/12/15 01:47:25;;;;;;;7.18;1.35;;;-0.60;99.90;;;;;;5072045;28;20136;-77
2022/12/15 01:50:15;;;;;;;10.80;2.75;;;-0.60;99.90;;;;;;5089842;28;20089;-83
2022/12/15 01:53:02;;;;;;;13.90;2.03;;;-0.50;99.90;;;;;;5077069;28;20067;-79
2022/12/15 01:55:48;;;;;;;8.73;2.00;;;-0.50;99.90;;;;;;5059425;28;20051;-78
2022/12/15 01:58:36;;;;;;;7.68;1.77;;;-0.40;99.90;;;;;;5079551;28;20087;-81
2022/12/15 02:01:22;;;;;;;13.95;2.05;;;-0.50;99.90;;;;;;5090481;28;20055;-78
2022/12/15 02:04:08;;;;;;;9.27;1.30;;;-0.30;99.90;;;;;;5058322;28;20047;-78
2022/12/15 02:06:54;;;;;;;7.03;1.40;;;-0.40;99.90;;;;;;5091583;28;20048;-83
2022/12/15 02:09:42;;;;;;;6.47;1.70;;;-0.30;99.90;;;;;;5076531;28;20474;-81
2022/12/15 02:13:06;;;;;;;11.00;1.38;;;-0.30;99.90;;;;;;5076363;28;20083;-80
2022/12/15 02:16:08;;;;;;;11.25;1.48;;;-0.30;99.90;;;;;;5074421;28;20058;-82
2022/12/15 02:18:59;;;;;;;5.63;0.82;;;-0.20;99.90;;;;;;5078947;28;20086;-77
2022/12/15 02:22:25;;;;;;;6.07;1.08;;;-0.20;99.90;;;;;;5075389;28;20046;-78
2022/12/15 02:25:22;;;;;;;6.85;1.08;;;-0.20;99.90;;;;;;5064627;28;20047;-84
2022/12/15 02:28:29;;;;;;;10.50;2.13;;;-0.20;99.90;;;;;;5100913;28;20044;-82
2022/12/15 02:34:34;;;;;;;6.97;0.90;;;-0.20;99.90;;;;;;5097324;28;20138;-84
2022/12/15 02:37:29;;;;;;;7.80;2.35;;;-0.20;99.90;;;;;;5073235;28;20053;-77
2022/12/15 02:40:16;;;;;;;6.43;0.90;;;-0.20;99.90;;;;;;5057924;28;20054;-76
2022/12/15 02:43:04;;;;;;;7.57;1.00;;;-0.20;99.90;;;;;;5071271;28;20411;-79
2022/12/15 02:46:12;;;;;;;5.07;0.77;;;-0.20;99.90;;;;;;5073039;28;20051;-81
2022/12/15 02:49:27;;;;;;;4.20;0.63;;;-0.20;99.90;;;;;;5077311;28;20052;-82
2022/12/15 02:52:44;;;;;;;7.20;0.57;;;-0.10;99.90;;;;;;5091369;28;20086;-78
2022/12/15 02:55:47;;;;;;;4.07;0.80;;;0.00;99.90;;;;;;5090993;28;20507;-78
2022/12/15 02:58:36;;;;;;;6.75;0.70;;;0.40;99.90;;;;;;5058308;28;20055;-76
2022/12/15 03:01:28;;;;;;;7.78;0.90;;;0.60;99.90;;;;;;5092612;28;20110;-85
2022/12/15 03:04:15;;;;;;;7.30;1.02;;;0.70;99.90;;;;;;5078321;28;20055;-78
2022/12/15 03:07:04;;;;;;;4.85;1.13;;;0.70;99.90;;;;;;5094105;28;20052;-80
2022/12/15 03:09:51;;;;;;;6.68;0.47;;;0.70;99.90;;;;;;5096986;28;20083;-79
2022/12/15 03:12:37;;;;;;;9.52;1.25;;;0.70;99.90;;;;;;5076301;28;20048;-80
2022/12/15 03:15:23;;;;;;;4.25;0.80;;;0.70;99.90;;;;;;5077003;28;20071;-84
2022/12/15 03:18:09;;;;;;;5.03;0.95;;;0.70;99.90;;;;;;5099740;28;20058;-78
2022/12/15 03:20:56;;;;;;;10.55;1.20;;;0.70;99.90;;;;;;5076132;28;20492;-78
2022/12/15 03:23:42;;;;;;;8.85;1.08;;;0.70;99.90;;;;;;5094479;28;20162;-81
2022/12/15 03:26:28;;;;;;;7.47;1.30;;;0.80;99.90;;;;;;5065500;28;20060;-85
2022/12/15 03:29:15;;;;;;;11.05;1.20;;;0.80;99.90;;;;;;5100677;28;20047;-79
2022/12/15 03:32:01;;;;;;;12.60;1.20;;;0.80;99.90;;;;;;5093508;28;20487;-84
2022/12/15 03:34:47;;;;;;;15.57;1.50;;;0.80;99.90;;;;;;5077731;28;20056;-83
2022/12/15 03:37:33;;;;;;;10.65;2.28;;;0.80;99.90;;;;;;5063191;28;20094;-76
2022/12/15 03:40:19;;;;;;;8.18;1.77;;;0.80;99.90;;;;;;5076721;28;20135;-80
2022/12/15 03:43:05;;;;;;;7.60;1.13;;;0.80;99.90;;;;;;5098092;28;20048;-84
2022/12/15 03:45:52;;;;;;;8.55;1.27;;;0.70;99.90;;;;;;5094571;28;20083;-81
2022/12/15 03:48:38;;;;;;;15.98;1.25;;;0.60;99.90;;;;;;5084165;28;20059;-78
2022/12/15 03:51:24;;;;;;;7.10;0.90;;;0.50;99.90;;;;;;5077722;28;20048;-77
2022/12/15 03:54:12;;;;;;;5.85;0.95;;;0.50;99.90;;;;;;5093473;28;20097;-77
2022/12/15 03:56:58;;;;;;;5.80;0.90;;;0.40;99.90;;;;;;5080034;28;20044;-83
2022/12/15 03:59:44;;;;;;;5.90;1.08;;;0.40;99.90;;;;;;5094409;28;20044;-77
2022/12/15 04:02:30;;;;;;;5.85;0.70;;;0.30;99.90;;;;;;5076006;28;20113;-78
2022/12/15 04:05:24;;;;;;;9.85;1.83;;;0.30;99.90;;;;;;5077349;28;20055;-81
2022/12/15 04:08:11;;;;;;;8.20;1.00;;;0.30;99.90;;;;;;5084145;28;20082;-85
2022/12/15 04:10:57;;;;;;;6.35;0.60;;;0.30;99.90;;;;;;5082450;28;20088;-84
2022/12/15 04:13:44;;;;;;;8.82;0.85;;;0.20;99.90;;;;;;5079256;28;20056;-80
2022/12/15 04:16:30;;;;;;;7.38;1.40;;;0.20;99.90;;;;;;5077764;28;20052;-81
2022/12/15 04:22:22;;;;;;;3.15;0.50;;;0.10;99.90;;;;;;5073781;28;20473;-79
2022/12/15 05:33:15;;;;;;;6.00;0.88;;;-0.20;99.90;;;;;;5094053;28;20044;-77
2022/12/15 05:36:01;;;;;;;7.70;1.20;;;-0.20;99.90;;;;;;5071968;28;20056;-80
2022/12/15 05:38:51;;;;;;;5.97;1.08;;;-0.20;99.90;;;;;;5073119;28;20044;-77
2022/12/15 05:41:37;;;;;;;5.43;1.35;;;-0.20;99.90;;;;;;5091434;28;20134;-78
2022/12/15 05:44:24;;;;;;;6.60;1.45;;;-0.10;99.90;;;;;;5091481;28;20055;-77
2022/12/15 05:47:11;;;;;;;8.65;1.38;;;-0.10;99.90;;;;;;5080270;28;20048;-78
2022/12/15 05:49:57;;;;;;;6.53;1.90;;;-0.10;99.90;;;;;;5082023;28;20048;-81
2022/12/15 05:52:43;;;;;;;5.65;1.50;;;-0.10;99.90;;;;;;5072996;28;20575;-78
2022/12/15 05:55:29;;;;;;;9.38;1.80;;;-0.20;99.90;;;;;;5090915;28;20542;-77
2022/12/15 05:58:15;;;;;;;6.43;1.40;;;-0.10;99.90;;;;;;5073460;28;20067;-77
2022/12/15 06:01:07;;;;;;;9.43;1.30;;;-0.10;99.90;;;;;;5090426;28;20059;-77
2022/12/15 06:03:53;;;;;;;10.05;1.52;;;-0.10;99.90;;;;;;5095766;28;20063;-83
2022/12/15 06:06:40;;;;;;;9.27;2.08;;;-0.10;99.90;;;;;;5091470;28;20134;-77
2022/12/15 06:09:26;;;;;;;7.95;1.10;;;-0.10;99.90;;;;;;5079781;28;20142;-77
2022/12/15 06:12:12;;;;;;;7.88;1.92;;;-0.20;99.90;;;;;;5058566;28;20097;-78
2022/12/15 06:14:58;;;;;;;10.68;1.73;;;-0.20;99.90;;;;;;5073018;28;20155;-79
2022/12/15 06:17:45;;;;;;;5.38;1.58;;;-0.20;99.90;;;;;;5090799;28;20052;-83
2022/12/15 06:20:31;;;;;;;8.48;1.70;;;-0.10;99.90;;;;;;5097175;28;20056;-78
2022/12/15 06:23:17;;;;;;;4.68;1.30;;;-0.10;99.90;;;;;;5072643;28;20093;-77
2022/12/15 06:26:26;;;;;;;7.03;1.48;;;-0.10;99.90;;;;;;5076609;28;20564;-78
2022/12/15 06:29:13;;;;;;;11.57;2.05;;;-0.10;99.90;;;;;;5093082;28;20052;-77
2022/12/15 06:31:59;;;;;;;10.23;1.60;;;0.00;99.90;;;;;;5074102;28;20083;-83
2022/12/15 06:34:45;;;;;;;5.72;1.20;;;0.00;99.90;;;;;;5072705;28;20189;-81
2022/12/15 06:37:31;;;;;;;6.93;1.48;;;0.00;99.90;;;;;;5071750;28;20055;-77
2022/12/15 06:40:17;;;;;;;8.45;1.70;;;0.00;99.90;;;;;;5072355;28;20068;-76
2022/12/15 06:43:04;;;;;;;15.57;2.20;;;0.00;99.90;;;;;;5086051;28;20048;-84
2022/12/15 06:45:50;;;;;;;12.80;1.55;;;-0.10;99.90;;;;;;5080899;28;20119;-81
2022/12/15 06:48:36;;;;;;;8.23;1.63;;;-0.10;99.90;;;;;;5097908;28;20044;-78
2022/12/15 06:51:23;;;;;;;5.25;1.05;;;-0.10;99.90;;;;;;5075923;28;20527;-78
2022/12/15 06:54:10;;;;;;;9.85;1.58;;;-0.10;99.90;;;;;;5076219;28;20077;-78
2022/12/15 06:56:56;;;;;;;8.65;1.67;;;-0.10;99.90;;;;;;5094061;28;20044;-78
2022/12/15 06:59:42;;;;;;;9.43;1.67;;;-0.20;99.90;;;;;;5095036;28;20071;-84
2022/12/15 07:02:31;;;;;;;8.18;1.90;;;-0.20;99.90;;;;;;5080165;28;20048;-77
2022/12/15 07:05:17;;;;;;;21.02;4.07;;;-0.20;99.90;;;;;;5076077;28;20181;-78
2022/12/15 07:08:04;;;;;;;6.88;1.92;;;-0.10;99.90;;;;;;5080572;28;20143;-77
2022/12/15 07:10:50;;;;;;;6.03;1.48;;;0.00;99.90;;;;;;5076462;28;20108;-79
2022/12/15 07:13:36;;;;;;;6.95;1.30;;;0.10;99.90;;;;;;5079035;28;20097;-83
2022/12/15 07:16:23;;;;;;;3.42;1.27;;;0.10;99.90;;;;;;5099373;28;20047;-79
2022/12/15 07:19:11;;;;;;;10.93;2.30;;;0.30;99.90;;;;;;5093967;28;20056;-81
2022/12/15 07:21:58;;;;;;;7.53;1.48;;;0.30;99.90;;;;;;5074737;28;20105;-79
2022/12/15 07:24:44;;;;;;;5.78;1.52;;;0.30;99.90;;;;;;5076972;28;20083;-77
2022/12/15 07:27:30;;;;;;;7.63;1.70;;;0.30;99.90;;;;;;5099392;28;20056;-82
2022/12/15 07:30:17;;;;;;;6.75;1.77;;;0.20;99.90;;;;;;5095198;28;20047;-78
2022/12/15 07:33:04;;;;;;;9.88;1.83;;;0.20;99.90;;;;;;5063247;28;20055;-77
2022/12/15 07:35:54;;;;;;;11.50;2.08;;;0.10;99.90;;;;;;5074469;28;20480;-79
2022/12/15 07:38:40;;;;;;;12.18;1.90;;;0.10;99.90;;;;;;5074829;28;20408;-80
2022/12/15 07:41:27;;;;;;;11.57;1.98;;;0.10;99.90;;;;;;5079780;28;20040;-82
2022/12/15 07:44:13;;;;;;;11.60;1.52;;;0.10;99.90;;;;;;5093822;28;20054;-79
2022/12/15 07:47:00;;;;;;;8.93;1.88;;;0.10;99.90;;;;;;5092956;28;20048;-81
2022/12/15 07:49:46;;;;;;;8.32;2.15;;;0.20;99.90;;;;;;5098332;28;20048;-83
2022/12/15 07:52:32;;;;;;;10.00;2.53;;;0.10;99.90;;;;;;5093483;28;20087;-76
2022/12/15 07:55:18;;;;;;;15.18;3.10;;;0.20;99.90;;;;;;5060254;28;20052;-86
2022/12/15 07:58:04;;;;;;;10.75;2.17;;;0.20;99.90;;;;;;5095357;28;20055;-77
2022/12/15 08:00:51;;;;;;;9.77;2.20;;;0.20;99.90;;;;;;5093152;28;20499;-77
2022/12/15 08:03:37;;;;;;;16.85;1.92;;;0.20;99.90;;;;;;5046848;28;20083;-77
2022/12/15 08:06:23;;;;;;;12.68;1.80;;;0.30;99.90;;;;;;5093284;28;20048;-78
2022/12/15 08:09:11;;;;;;;6.40;1.50;;;0.30;99.90;;;;;;5097393;28;20412;-79
2022/12/15 08:11:58;;;;;;;6.85;1.42;;;0.40;99.90;;;;;;5084306;28;20040;-85
2022/12/15 08:14:44;;;;;;;11.98;2.92;;;0.40;99.90;;;;;;5093357;28;20087;-82
2022/12/15 08:17:31;;;;;;;9.55;1.90;;;0.50;99.90;;;;;;5093610;28;20503;-78
2022/12/15 08:20:17;;;;;;;13.63;1.80;;;0.50;99.90;;;;;;5092155;28;20051;-78
2022/12/15 08:23:03;;;;;;;14.20;1.90;;;0.50;99.90;;;;;;5093997;28;20044;-84
2022/12/15 08:25:49;;;;;;;5.13;1.52;;;0.60;99.90;;;;;;5094752;28;20052;-81
2022/12/15 08:28:38;;;;;;;10.45;1.88;;;0.60;99.90;;;;;;5081227;28;20047;-81
2022/12/15 08:31:24;;;;;;;9.02;1.67;;;0.70;99.90;;;;;;5093013;28;20429;-77
2022/12/15 08:34:10;;;;;;;8.20;1.75;;;0.80;99.90;;;;;;5092260;28;20138;-83
2022/12/15 08:36:56;;;;;;;12.75;3.28;;;0.90;99.90;;;;;;5074240;28;20091;-85
2022/12/15 08:39:43;;;;;;;13.30;1.98;;;1.00;99.90;;;;;;5082471;28;20225;-85
2022/12/15 08:42:33;;;;;;;8.38;1.40;;;1.10;99.90;;;;;;5092580;28;20044;-79
2022/12/15 08:45:19;;;;;;;11.52;2.17;;;1.10;99.90;;;;;;5073443;28;20056;-81
2022/12/15 08:48:06;;;;;;;12.45;2.10;;;1.10;99.90;;;;;;5092504;28;20055;-78
2022/12/15 08:50:55;;;;;;;12.18;2.13;;;1.10;99.90;;;;;;5099321;28;20048;-80
2022/12/15 08:53:41;;;;;;;6.45;1.63;;;1.20;99.90;;;;;;5101518;28;20056;-84
2022/12/15 08:56:28;;;;;;;9.88;1.70;;;1.20;99.90;;;;;;5090234;28;20051;-79
2022/12/15 08:59:15;;;;;;;11.20;2.00;;;1.30;99.90;;;;;;5074301;28;20480;-79
2022/12/15 09:02:01;;;;;;;9.32;1.63;;;1.40;99.90;;;;;;5073384;28;20056;-79
2022/12/15 09:04:47;;;;;;;9.43;1.55;;;1.40;99.90;;;;;;5090321;28;20492;-81
2022/12/15 09:07:33;;;;;;;7.53;1.98;;;1.50;99.90;;;;;;5099900;28;20067;-81
2022/12/15 09:10:20;;;;;;;9.88;2.00;;;1.70;99.90;;;;;;5080854;28;20488;-81
2022/12/15 09:13:06;;;;;;;9.77;1.63;;;1.80;99.90;;;;;;5092588;28;20123;-84
2022/12/15 09:15:57;;;;;;;9.40;1.70;;;1.90;99.90;;;;;;5091723;28;20040;-84
2022/12/15 09:18:46;;;;;;;7.32;1.75;;;1.90;99.90;;;;;;5090636;28;20047;-81
2022/12/15 09:21:33;;;;;;;12.55;2.15;;;2.00;99.90;;;;;;5075579;28;20093;-84
2022/12/15 09:24:19;;;;;;;10.85;1.75;;;2.20;99.90;;;;;;5095449;28;20044;-79
2022/12/15 09:27:05;;;;;;;10.00;1.95;;;2.30;99.90;;;;;;5078699;28;20052;-81
2022/12/15 09:29:51;;;;;;;7.97;1.63;;;2.40;99.90;;;;;;5073657;28;20105;-82
2022/12/15 09:32:37;;;;;;;14.95;3.78;;;2.40;99.90;;;;;;5091337;28;20087;-85
2022/12/15 09:35:26;;;;;;;8.65;2.13;;;2.40;99.90;;;;;;5091315;28;20074;-86
2022/12/15 09:38:12;;;;;;;8.35;2.08;;;2.50;99.90;;;;;;5081007;28;20087;-78
2022/12/15 09:41:11;;;;;;;10.75;2.38;;;2.50;99.90;;;;;;5091480;28;20446;-80
2022/12/15 09:44:06;;;;;;;8.65;1.40;;;2.60;99.90;;;;;;5061643;28;20054;-78
2022/12/15 09:47:04;;;;;;;9.35;2.00;;;2.70;99.90;;;;;;5092741;28;20052;-78
2022/12/15 09:49:55;;;;;;;10.05;1.77;;;2.90;99.90;;;;;;5073859;28;20095;-86
2022/12/15 09:52:55;;;;;;;6.53;1.75;;;3.20;99.90;;;;;;5096373;28;20063;-80
2022/12/15 09:55:44;;;;;;;10.07;1.95;;;3.40;99.90;;;;;;5071925;28;20630;-84
2022/12/15 09:58:40;;;;;;;15.68;2.28;;;3.60;99.90;;;;;;5091598;28;20130;-79
2022/12/15 10:02:05;;;;;;;;;;;3.70;99.90;;;;;;5073567;28;20056;-81
2022/12/15 10:04:51;;;;;;;7.22;1.42;;;3.90;99.90;;;;;;4994739;28;19933;-77
2022/12/15 10:07:45;;;;;;;9.30;2.22;;;4.10;99.90;;;;;;4994122;28;20529;-87
2022/12/15 10:10:45;;;;;;;11.18;1.98;;;4.20;99.90;;;;;;5080140;28;20048;-85
2022/12/15 10:13:51;;;;;;;8.07;1.92;;;4.50;99.90;;;;;;5089660;28;20054;-80
2022/12/15 10:16:57;;;;;;;;;;;4.50;99.90;;;;;;5089630;28;20051;-79
2022/12/15 10:20:05;;;;;;;12.23;1.90;;;5.00;99.90;;;;;;5089640;28;19969;-86
2022/12/15 10:22:52;;;;;;;8.30;2.53;;;5.60;99.90;;;;;;5094254;28;20043;-85
2022/12/15 10:25:42;;;;;;;6.90;1.70;;;5.70;99.90;;;;;;5094207;28;20112;-88
2022/12/15 10:28:40;;;;;;;9.30;2.10;;;5.40;99.90;;;;;;5092422;28;20053;-86
2022/12/15 10:32:00;;;;;;;11.27;2.30;;;5.40;99.90;;;;;;5091170;28;20040;-89
2022/12/15 10:34:47;;;;;;;7.10;2.20;;;5.40;99.90;;;;;;5021605;28;20039;-84
2022/12/15 10:37:33;;;;;;;8.35;1.70;;;5.10;99.90;;;;;;5072358;28;20120;-84
2022/12/15 10:40:45;;;;;;;12.80;3.13;;;4.90;99.90;;;;;;5091400;28;20040;-78
2022/12/15 10:43:35;;;;;;;34.20;3.80;;;5.20;99.90;;;;;;5090209;28;20466;-85
2022/12/15 10:46:24;;;;;;;12.73;2.08;;;5.20;99.90;;;;;;5089055;28;20055;-86
2022/12/15 10:49:10;;;;;;;6.35;1.90;;;5.20;99.90;;;;;;5078141;28;20052;-89
2022/12/15 10:51:59;;;;;;;11.13;2.03;;;5.20;99.90;;;;;;5097337;28;20129;-87
2022/12/15 10:54:47;;;;;;;10.32;2.70;;;5.30;99.90;;;;;;5072345;28;20576;-84
2022/12/15 10:57:34;;;;;;;14.40;3.70;;;5.80;99.90;;;;;;5090968;28;20067;-88
2022/12/15 11:00:27;;;;;;;10.05;2.83;;;5.90;99.90;;;;;;5090697;28;20048;-89
2022/12/15 11:03:22;;;;;;;12.85;2.95;;;5.90;99.90;;;;;;5079111;28;20056;-83
2022/12/15 11:06:13;;;;;;;;;;;5.80;99.90;;;;;;5071573;28;20134;-80
2022/12/15 11:09:31;;;;;;;18.30;5.68;;;5.80;99.90;;;;;;5090169;28;19930;-86
2022/12/15 11:15:30;;;;;;;10.18;2.40;;;6.30;99.90;;;;;;5091304;28;20048;-89
2022/12/15 11:18:40;;;;;;;4.95;1.92;;;6.50;99.90;;;;;;5073326;28;20048;-86
2022/12/15 11:21:38;;;;;;;10.40;1.88;;;6.60;99.90;;;;;;5071721;28;20135;-88
2022/12/15 11:25:21;;;;;;;9.60;2.35;;;6.70;99.90;;;;;;5089955;28;20095;-87
2022/12/15 11:28:39;;;;;;;7.65;1.88;;;7.10;99.90;;;;;;5014292;28;20054;-87
2022/12/15 11:31:41;;;;;;;6.45;1.60;;;7.90;99.90;;;;;;5077332;28;20138;-83
2022/12/15 11:34:43;;;;;;;10.63;2.67;;;8.00;99.90;;;;;;5080345;28;20048;-81
2022/12/15 11:37:39;;;;;;;10.85;3.58;;;8.40;99.90;;;;;;5093482;28;20454;-84
2022/12/15 11:40:38;;;;;;;6.47;1.80;;;8.50;99.90;;;;;;5093809;28;20056;-82
2022/12/15 11:43:55;;;;;;;7.63;1.73;;;8.70;99.90;;;;;;5094245;28;20044;-88
2022/12/15 11:46:54;;;;;;;11.00;2.08;;;8.80;99.90;;;;;;5103898;28;20116;-84
2022/12/15 11:50:13;;;;;;;12.68;2.35;;;8.40;99.90;;;;;;5093460;28;20101;-79
2022/12/15 11:53:08;;;;;;;16.67;2.83;;;8.20;99.90;;;;;;5075528;28;20059;-76
2022/12/15 11:55:57;;;;;;;6.45;1.85;;;8.20;99.90;;;;;;5093712;28;20051;-87
2022/12/15 11:59:17;;;;;;;6.95;1.65;;;7.50;99.90;;;;;;5100626;28;20147;-87
2022/12/15 12:02:35;;;;;;;7.88;1.75;;;6.80;99.90;;;;;;5078522;28;20056;-86
2022/12/15 12:05:38;;;;;;;8.48;1.95;;;6.10;99.90;;;;;;5060023;28;20083;-79
2022/12/15 12:08:34;;;;;;;6.97;1.70;;;5.70;99.90;;;;;;5061026;28;20048;-83
2022/12/15 12:11:38;;;;;;;;;;;5.30;99.90;;;;;;5074868;28;20044;-81
2022/12/15 12:14:45;;;;;;;5.50;1.35;;;5.00;99.90;;;;;;5074288;28;19923;-88
2022/12/15 12:17:37;;;;;;;11.45;1.80;;;4.80;99.90;;;;;;5096108;28;20044;-89
2022/12/15 12:20:39;;;;;;;12.05;2.47;;;4.80;99.90;;;;;;5100425;28;20399;-80
2022/12/15 12:23:34;;;;;;;9.95;1.88;;;5.70;99.90;;;;;;5094686;28;20101;-81
2022/12/15 12:26:41;;;;;;;8.00;1.48;;;6.90;99.90;;;;;;5091792;28;20134;-80
2022/12/15 12:29:38;;;;;;;11.98;2.10;;;6.90;99.90;;;;;;5094769;28;20491;-88
2022/12/15 12:32:41;;;;;;;10.10;1.92;;;6.80;99.90;;;;;;5094864;28;20040;-83
2022/12/15 12:35:39;;;;;;;9.73;1.67;;;7.50;99.90;;;;;;5073901;28;20076;-77
2022/12/15 12:38:30;;;;;;;9.38;2.10;;;7.60;99.90;;;;;;5080334;28;20420;-81
2022/12/15 12:41:37;;;;;;;9.18;2.50;;;7.20;99.90;;;;;;5064128;28;20142;-82
2022/12/15 12:44:33;;;;;;;9.77;1.50;;;6.70;99.90;;;;;;5093073;28;20040;-83
2022/12/15 12:47:34;;;;;;;9.10;1.58;;;6.20;99.90;;;;;;5067908;28;20063;-79
2022/12/15 12:50:23;;;;;;;8.38;2.22;;;5.90;99.90;;;;;;5092497;28;20047;-85
2022/12/15 12:53:26;;;;;;;5.35;1.35;;;6.00;99.90;;;;;;5073270;28;20384;-79
2022/12/15 12:56:32;;;;;;;5.65;1.52;;;6.60;99.90;;;;;;5061095;28;20083;-78
2022/12/15 12:59:27;;;;;;;8.70;1.30;;;6.90;99.90;;;;;;5085597;28;20044;-79
2022/12/15 13:02:13;;;;;;;7.70;1.67;;;6.60;99.90;;;;;;5074117;28;20063;-81
2022/12/15 13:05:20;;;;;;;8.88;1.73;;;6.30;99.90;;;;;;5092082;28;20043;-80
2022/12/15 13:08:06;;;;;;;9.38;1.90;;;6.10;99.90;;;;;;5091785;28;20522;-82
2022/12/15 13:10:54;;;;;;;9.38;1.60;;;6.00;99.90;;;;;;5075351;28;20052;-80
2022/12/15 13:13:44;;;;;;;18.65;4.60;;;5.70;99.90;;;;;;5084844;28;20510;-83
2022/12/15 13:16:31;;;;;;;8.25;1.85;;;5.50;99.90;;;;;;5091937;28;20044;-79
2022/12/15 13:19:55;;;;;;;13.57;2.45;;;5.30;99.90;;;;;;5093887;28;20113;-82
2022/12/15 13:22:41;;;;;;;9.65;2.40;;;5.20;99.90;;;;;;5097224;28;20054;-81
2022/12/15 13:25:37;;;;;;;12.63;2.63;;;5.00;99.90;;;;;;5092566;28;20052;-82
2022/12/15 13:28:38;;;;;;;10.80;2.20;;;4.80;99.90;;;;;;5086493;28;20048;-82
2022/12/15 13:31:29;;;;;;;10.18;2.00;;;4.50;99.90;;;;;;5092762;28;20086;-79
2022/12/15 13:34:20;;;;;;;10.70;2.63;;;4.40;99.90;;;;;;5092227;28;20102;-77
2022/12/15 13:37:46;;;;;;;12.68;2.58;;;4.30;99.90;;;;;;5076411;28;20052;-77
2022/12/15 13:40:36;;;;;;;11.13;3.08;;;4.30;99.90;;;;;;5081423;28;20448;-77
2022/12/15 13:43:26;;;;;;;8.65;2.15;;;4.20;99.90;;;;;;5082266;28;20048;-78
2022/12/15 13:46:21;;;;;;;7.88;2.25;;;4.00;99.90;;;;;;5089087;28;20044;-84
2022/12/15 13:49:12;;;;;;;;;;;4.00;99.90;;;;;;5086535;28;20059;-81
2022/12/15 13:52:02;;;;;;;6.47;2.58;;;3.90;99.90;;;;;;5095721;28;19923;-85
2022/12/15 13:55:04;;;;;;;10.93;3.20;;;4.00;99.90;;;;;;5074748;28;20047;-85
2022/12/15 13:57:59;;;;;;;14.90;3.75;;;4.00;99.90;;;;;;5094022;28;20101;-84
2022/12/15 14:00:52;;;;;;;6.18;2.58;;;3.90;99.90;;;;;;5099254;28;20055;-84
2022/12/15 14:03:39;;;;;;;11.50;2.60;;;3.80;99.90;;;;;;5098042;28;20144;-78
2022/12/15 14:06:35;;;;;;;11.02;2.85;;;3.70;99.90;;;;;;5091128;28;20139;-85
2022/12/15 14:09:29;;;;;;;9.20;3.13;;;3.70;99.90;;;;;;5072461;28;20153;-85
2022/12/15 14:12:15;;;;;;;7.63;2.47;;;3.70;99.90;;;;;;5090626;28;20048;-85
2022/12/15 14:15:02;;;;;;;13.88;2.85;;;3.60;99.90;;;;;;5098343;28;20094;-85
2022/12/15 14:17:54;;;;;;;10.15;3.28;;;3.50;99.90;;;;;;5099948;28;20092;-84
2022/12/15 14:20:41;;;;;;;16.50;3.17;;;3.40;99.90;;;;;;5093438;28;20062;-85
2022/12/15 14:23:39;;;;;;;9.10;2.92;;;3.30;99.90;;;;;;5073456;28;20044;-81
2022/12/15 14:26:29;;;;;;;9.30;3.25;;;3.20;99.90;;;;;;5090768;28;20116;-84
2022/12/15 14:29:16;;;;;;;13.30;3.30;;;3.10;99.90;;;;;;5090023;28;20112;-84
2022/12/15 14:32:03;;;;;;;14.38;3.95;;;3.10;99.90;;;;;;5092208;28;20044;-80
2022/12/15 14:34:49;;;;;;;7.68;2.58;;;3.10;99.90;;;;;;5073615;28;20051;-79
2022/12/15 14:37:35;;;;;;;10.60;2.22;;;3.00;99.90;;;;;;5097365;28;20044;-79
2022/12/15 14:40:23;;;;;;;6.78;1.17;;;3.10;99.90;;;;;;5073078;28;20059;-86
2022/12/15 14:43:19;;;;;;;9.68;1.70;;;3.10;99.90;;;;;;5096324;28;20055;-87
2022/12/15 14:46:17;;;;;;;8.20;2.13;;;3.00;99.90;;;;;;5073207;28;20043;-85
2022/12/15 14:49:06;;;;;;;9.48;2.13;;;3.00;99.90;;;;;;5075197;28;20048;-83
2022/12/15 14:51:58;;;;;;;8.38;2.20;;;2.90;99.90;;;;;;5090134;28;20040;-82
2022/12/15 14:54:57;;;;;;;9.98;1.95;;;2.90;99.90;;;;;;5078009;28;20052;-84
2022/12/15 14:57:44;;;;;;;10.10;2.58;;;2.80;99.90;;;;;;5092211;28;20496;-87
2022/12/15 15:00:31;;;;;;;7.75;2.25;;;2.70;99.90;;;;;;5078773;28;20135;-80
2022/12/15 15:03:22;;;;;;;12.57;2.78;;;2.60;99.90;;;;;;5075445;28;20064;-86
2022/12/15 15:06:10;;;;;;;10.18;2.25;;;2.60;99.90;;;;;;5094410;28;20135;-83
2022/12/15 15:09:11;;;;;;;7.05;1.80;;;2.50;99.90;;;;;;5088877;28;20051;-82
2022/12/15 15:12:06;;;;;;;9.43;1.70;;;2.40;99.90;;;;;;5077794;28;20044;-78
2022/12/15 15:15:04;;;;;;;6.25;1.55;;;2.40;99.90;;;;;;5076343;28;20083;-78
2022/12/15 15:17:56;;;;;;;3.88;1.30;;;2.30;99.90;;;;;;5062516;28;20048;-80
2022/12/15 15:20:54;;;;;;;7.97;1.10;;;2.30;99.90;;;;;;5095483;28;20052;-79
2022/12/15 15:23:40;;;;;;;4.57;1.00;;;2.20;99.90;;;;;;5082944;28;20146;-85
2022/12/15 15:26:27;;;;;;;6.55;1.17;;;2.20;99.90;;;;;;5103712;28;20104;-83
2022/12/15 15:29:33;;;;;;;6.40;1.60;;;2.10;99.90;;;;;;5094307;28;20044;-80
2022/12/15 15:32:21;;;;;;;7.43;1.03;;;2.00;99.90;;;;;;5074647;28;20048;-82
2022/12/15 15:35:07;;;;;;;5.78;1.38;;;2.00;99.90;;;;;;5093635;28;20317;-82
2022/12/15 15:38:07;;;;;;;4.20;1.33;;;1.90;99.90;;;;;;5077029;28;20505;-86
2022/12/15 15:40:58;;;;;;;6.53;1.80;;;1.90;99.90;;;;;;5100994;28;20055;-79
2022/12/15 15:43:46;;;;;;;3.85;1.20;;;1.80;99.90;;;;;;5083956;28;20048;-87
2022/12/15 15:46:34;;;;;;;7.95;1.85;;;1.80;99.90;;;;;;5097127;28;20052;-78
2022/12/15 15:49:23;;;;;;;6.10;1.50;;;1.70;99.90;;;;;;5092622;28;20048;-79
2022/12/15 15:52:12;;;;;;;8.05;1.50;;;1.70;99.90;;;;;;5072565;28;20052;-88
2022/12/15 15:54:58;;;;;;;6.20;1.58;;;1.70;99.90;;;;;;5098303;28;20056;-81
2022/12/15 15:57:44;;;;;;;7.07;1.55;;;1.60;99.90;;;;;;5074504;28;20134;-82
2022/12/15 16:00:30;;;;;;;6.00;1.60;;;1.60;99.90;;;;;;5093110;28;20051;-85
2022/12/15 16:03:17;;;;;;;3.97;1.20;;;1.60;99.90;;;;;;5096825;28;20062;-87
2022/12/15 16:06:05;;;;;;;6.60;1.40;;;1.60;99.90;;;;;;5098389;28;20055;-81
2022/12/15 16:08:52;;;;;;;4.85;1.40;;;1.60;99.90;;;;;;5085013;28;20051;-80
2022/12/15 16:11:39;;;;;;;4.97;1.45;;;1.60;99.90;;;;;;5075348;28;20067;-84
2022/12/15 16:14:25;;;;;;;3.95;2.03;;;1.60;99.90;;;;;;5091326;28;20514;-79
2022/12/15 16:17:11;;;;;;;5.82;1.58;;;1.60;99.90;;;;;;5074267;28;20388;-78
2022/12/15 16:19:58;;;;;;;4.60;2.50;;;1.60;99.90;;;;;;5075858;28;20559;-83
2022/12/15 16:22:54;;;;;;;16.80;2.80;;;1.60;99.90;;;;;;5105816;28;20044;-83
2022/12/15 16:25:52;;;;;;;6.88;1.58;;;1.70;99.90;;;;;;5074512;28;20419;-83
2022/12/15 16:28:39;;;;;;;8.10;1.95;;;1.70;99.90;;;;;;5075537;28;20369;-81
2022/12/15 16:31:38;;;;;;;8.57;2.10;;;1.80;99.90;;;;;;5074416;28;20086;-89
2022/12/15 16:34:24;;;;;;;11.32;2.30;;;1.70;99.90;;;;;;5076153;28;20135;-87
2022/12/15 16:37:27;;;;;;;5.60;2.33;;;1.80;99.90;;;;;;5083258;28;20051;-78
2022/12/15 16:40:25;;;;;;;9.32;2.53;;;1.80;99.90;;;;;;5074682;28;20067;-77
2022/12/15 16:43:17;;;;;;;8.30;2.70;;;1.80;99.90;;;;;;5080277;28;20079;-84
2022/12/15 16:46:04;;;;;;;8.13;2.40;;;1.90;99.90;;;;;;5073342;28;20055;-80
2022/12/15 16:48:50;;;;;;;8.35;2.35;;;1.80;99.90;;;;;;5091869;28;20086;-81
2022/12/15 16:51:39;;;;;;;9.65;2.72;;;1.80;99.90;;;;;;5094666;28;20590;-84
2022/12/15 16:54:27;;;;;;;6.35;2.45;;;1.80;99.90;;;;;;5091810;28;20384;-79
2022/12/15 16:57:13;;;;;;;7.30;2.38;;;1.80;99.90;;;;;;5092336;28;20051;-78
2022/12/15 17:00:00;;;;;;;13.90;3.63;;;1.80;99.90;;;;;;5074589;28;20055;-86
2022/12/15 17:02:46;;;;;;;6.18;1.92;;;1.80;99.90;;;;;;5095016;28;20055;-79
2022/12/15 17:05:35;;;;;;;6.82;2.33;;;1.80;99.90;;;;;;5091443;28;20496;-82
2022/12/15 17:08:51;;;;;;;7.97;2.40;;;1.90;99.90;;;;;;5077898;28;20040;-82
2022/12/15 17:11:38;;;;;;;6.03;2.00;;;1.90;99.90;;;;;;5092799;28;20048;-79
2022/12/15 17:14:24;;;;;;;9.45;2.13;;;1.80;99.90;;;;;;5073206;28;20093;-86
2022/12/15 17:17:15;;;;;;;6.35;1.40;;;1.80;99.90;;;;;;5091310;28;20085;-87
2022/12/15 17:20:01;;;;;;;6.13;1.42;;;1.70;99.90;;;;;;5093599;28;20048;-87
2022/12/15 17:22:54;;;;;;;7.20;1.52;;;1.70;99.90;;;;;;5099149;28;20096;-84
2022/12/15 17:25:43;;;;;;;4.90;1.42;;;1.70;99.90;;;;;;5091922;28;20087;-79
2022/12/15 17:28:32;;;;;;;5.20;1.35;;;1.60;99.90;;;;;;5073867;28;20538;-81
2022/12/15 17:31:21;;;;;;;4.07;1.20;;;1.60;99.90;;;;;;5091231;28;20063;-84